createdAt,value
2018-07-12T00:02:00.667Z,81.30
2018-07-12T00:04:29.515Z,81.12
2018-07-12T00:06:58.385Z,81.10
2018-07-12T00:09:27.277Z,81.33
2018-07-12T00:11:56.142Z,81.40
2018-07-12T00:14:25.074Z,81.51
2018-07-12T00:16:53.919Z,81.53
2018-07-12T00:19:22.777Z,81.21
2018-07-12T00:21:51.635Z,81.32
2018-07-12T00:24:20.651Z,81.54
2018-07-12T00:26:49.524Z,81.12
2018-07-12T00:29:18.403Z,80.95
2018-07-12T00:31:47.326Z,81.00
2018-07-12T00:34:16.157Z,81.41
2018-07-12T00:36:45.011Z,81.25
2018-07-12T00:39:13.903Z,81.50
2018-07-12T00:41:42.857Z,81.66
2018-07-12T00:44:11.705Z,81.42
2018-07-12T00:46:40.568Z,81.93
2018-07-12T00:49:09.665Z,81.71
2018-07-12T00:51:38.490Z,82.03
2018-07-12T00:54:07.366Z,81.84
2018-07-12T00:56:36.212Z,81.41
2018-07-12T00:59:05.051Z,81.64
2018-07-12T01:01:33.952Z,81.72
2018-07-12T01:04:02.809Z,81.16
2018-07-12T01:06:31.669Z,81.15
2018-07-12T01:09:00.915Z,81.17
2018-07-12T01:11:29.775Z,81.32
2018-07-12T01:13:58.631Z,81.16
2018-07-12T01:16:27.510Z,81.21
2018-07-12T01:18:56.370Z,81.67
2018-07-12T01:21:25.236Z,81.43
2018-07-12T01:23:54.095Z,81.35
2018-07-12T01:26:23.016Z,82.04
2018-07-12T01:28:51.956Z,81.95
2018-07-12T01:31:20.814Z,82.20
2018-07-12T01:33:49.660Z,82.02
2018-07-12T01:36:18.616Z,81.81
2018-07-12T01:38:48.460Z,82.20
2018-07-12T01:41:17.353Z,82.44
2018-07-12T01:43:47.100Z,82.43
2018-07-12T01:46:15.952Z,82.21
2018-07-12T01:48:44.831Z,82.42
2018-07-12T01:51:13.689Z,82.30
2018-07-12T01:53:42.517Z,82.56
2018-07-12T01:56:11.516Z,82.51
2018-07-12T01:58:40.399Z,82.14
2018-07-12T02:01:09.271Z,82.31
2018-07-12T02:03:38.119Z,82.17
2018-07-12T02:06:07.005Z,82.15
2018-07-12T02:08:35.865Z,82.69
2018-07-12T02:11:04.755Z,82.41
2018-07-12T02:13:33.693Z,82.66
2018-07-12T02:16:02.575Z,82.50
2018-07-12T02:18:32.129Z,82.72
2018-07-12T02:21:01.038Z,82.80
2018-07-12T02:23:29.868Z,82.69
2018-07-12T02:25:58.704Z,82.92
2018-07-12T02:28:27.593Z,83.01
2018-07-12T02:30:56.454Z,82.73
2018-07-12T02:33:25.348Z,82.63
2018-07-12T02:35:54.203Z,83.01
2018-07-12T02:38:23.076Z,82.90
2018-07-12T02:40:52.016Z,82.59
2018-07-12T02:43:20.852Z,82.71
2018-07-12T02:45:49.711Z,82.37
2018-07-12T02:48:18.592Z,82.42
2018-07-12T02:50:47.457Z,82.51
2018-07-12T02:53:16.292Z,82.27
2018-07-12T02:55:45.245Z,82.68
2018-07-12T02:58:14.074Z,82.72
2018-07-12T03:00:42.945Z,82.37
2018-07-12T03:03:11.822Z,82.34
2018-07-12T03:05:40.692Z,82.70
2018-07-12T03:08:09.566Z,83.51
2018-07-12T03:10:38.427Z,83.41
2018-07-12T03:13:07.246Z,83.71
2018-07-12T03:15:37.050Z,83.82
2018-07-12T03:18:05.888Z,83.77
2018-07-12T03:23:09.786Z,82.97
2018-07-12T03:25:38.668Z,82.76
2018-07-12T03:28:07.494Z,83.43
2018-07-12T03:30:36.387Z,83.95
2018-07-12T03:33:05.225Z,83.73
2018-07-12T03:35:34.076Z,83.50
2018-07-12T03:38:02.958Z,83.41
2018-07-12T03:40:31.888Z,83.30
2018-07-12T03:43:00.731Z,83.41
2018-07-12T03:45:29.620Z,83.23
2018-07-12T03:47:58.512Z,82.83
2018-07-12T03:50:27.369Z,82.51
2018-07-12T03:52:56.247Z,83.13
2018-07-12T03:55:25.125Z,83.28
2018-07-12T03:57:53.971Z,83.61
2018-07-12T04:00:22.821Z,83.55
2018-07-12T04:02:51.665Z,83.19
2018-07-12T04:05:20.551Z,83.18
2018-07-12T04:07:49.667Z,82.99
2018-07-12T04:10:18.370Z,83.16
2018-07-12T04:12:47.259Z,83.20
2018-07-12T04:15:16.134Z,83.07
2018-07-12T04:17:44.983Z,82.85
2018-07-12T04:20:13.861Z,82.82
2018-07-12T04:22:42.722Z,82.74
2018-07-12T04:25:11.558Z,82.10
2018-07-12T04:27:40.453Z,82.08
2018-07-12T04:30:09.286Z,82.21
2018-07-12T04:32:38.136Z,81.61
2018-07-12T04:35:06.997Z,81.60
2018-07-12T04:37:35.956Z,81.56
2018-07-12T04:40:04.884Z,81.07
2018-07-12T04:42:33.788Z,81.18
2018-07-12T04:45:02.659Z,80.80
2018-07-12T04:47:31.566Z,80.44
2018-07-12T04:50:00.388Z,80.67
2018-07-12T04:52:29.209Z,80.05
2018-07-12T04:54:58.084Z,80.28
2018-07-12T04:57:26.920Z,79.73
2018-07-12T04:59:55.781Z,79.24
2018-07-12T05:02:24.652Z,78.98
2018-07-12T05:04:53.497Z,78.54
2018-07-12T05:07:22.354Z,78.08
2018-07-12T05:09:51.189Z,77.71
2018-07-12T05:12:20.024Z,77.41
2018-07-12T05:14:48.932Z,77.62
2018-07-12T05:17:17.759Z,76.93
2018-07-12T05:19:46.691Z,77.10
2018-07-12T05:22:15.552Z,76.79
2018-07-12T05:24:44.426Z,77.04
2018-07-12T05:27:13.588Z,77.12
2018-07-12T05:29:42.472Z,77.01
2018-07-12T05:32:11.421Z,77.09
2018-07-12T05:34:40.270Z,77.26
2018-07-12T05:37:10.968Z,77.47
2018-07-12T05:39:41.649Z,78.12
2018-07-12T05:42:12.568Z,77.73
2018-07-12T05:44:43.193Z,77.51
2018-07-12T05:47:13.904Z,77.61
2018-07-12T05:49:44.570Z,77.71
2018-07-12T05:52:15.275Z,77.98
2018-07-12T05:54:45.930Z,78.53
2018-07-12T05:57:16.585Z,78.58
2018-07-12T05:59:47.309Z,78.65
2018-07-12T06:02:21.748Z,78.62
2018-07-12T06:04:52.416Z,79.03
2018-07-12T06:07:28.364Z,77.73
2018-07-12T06:09:59.244Z,77.89
2018-07-12T06:12:29.916Z,77.21
2018-07-12T06:15:00.580Z,76.41
2018-07-12T06:17:31.267Z,76.68
2018-07-12T06:20:01.976Z,76.96
2018-07-12T06:22:32.639Z,76.32
2018-07-12T06:25:03.359Z,75.73
2018-07-12T06:27:34.006Z,75.49
2018-07-12T06:30:05.452Z,75.18
2018-07-12T06:32:36.181Z,74.95
2018-07-12T06:35:07.633Z,74.48
2018-07-12T06:37:38.489Z,74.03
2018-07-12T06:40:09.227Z,73.68
2018-07-12T06:42:39.976Z,74.01
2018-07-12T06:45:10.656Z,74.81
2018-07-12T06:47:41.466Z,74.72
2018-07-12T06:50:12.328Z,74.18
2018-07-12T06:52:43.144Z,74.81
2018-07-12T06:55:14.127Z,74.15
2018-07-12T06:57:44.901Z,73.32
2018-07-12T07:00:15.651Z,73.63
2018-07-12T07:02:46.329Z,73.21
2018-07-12T07:05:17.036Z,73.45
2018-07-12T07:07:47.816Z,73.74
2018-07-12T07:10:18.506Z,73.12
2018-07-12T07:12:49.290Z,72.79
2018-07-12T07:15:19.981Z,72.61
2018-07-12T07:17:50.730Z,72.93
2018-07-12T07:20:21.437Z,71.77
2018-07-12T07:22:52.129Z,72.54
2018-07-12T07:25:22.815Z,72.07
2018-07-12T07:27:53.497Z,73.01
2018-07-12T07:30:24.410Z,71.52
2018-07-12T07:32:55.198Z,70.79
2018-07-12T07:35:25.830Z,72.32
2018-07-12T07:37:56.535Z,71.65
2018-07-12T07:40:27.203Z,70.59
2018-07-12T07:42:58.049Z,71.06
2018-07-12T07:45:28.704Z,70.49
2018-07-12T07:47:59.390Z,71.36
2018-07-12T07:50:30.058Z,70.67
2018-07-12T07:53:00.869Z,70.07
2018-07-12T07:55:31.509Z,70.15
2018-07-12T07:58:02.308Z,69.40
2018-07-12T08:00:33.010Z,69.38
2018-07-12T08:03:03.777Z,68.93
2018-07-12T08:05:34.436Z,68.76
2018-07-12T08:08:05.252Z,67.62
2018-07-12T08:10:35.971Z,66.57
2018-07-12T08:13:06.836Z,66.67
2018-07-12T08:15:37.559Z,65.19
2018-07-12T08:18:08.335Z,62.51
2018-07-12T08:20:39.069Z,61.08
2018-07-12T08:23:09.877Z,60.85
2018-07-12T08:25:40.599Z,61.10
2018-07-12T08:28:25.183Z,60.57
2018-07-12T08:30:56.272Z,60.12
2018-07-12T08:33:27.030Z,58.77
2018-07-12T08:35:57.729Z,57.34
2018-07-12T08:38:28.397Z,57.28
2018-07-12T08:40:59.115Z,58.61
2018-07-12T08:43:30.134Z,58.65
2018-07-12T08:46:00.886Z,57.84
2018-07-12T08:48:31.616Z,57.64
2018-07-12T08:51:02.296Z,57.18
2018-07-12T08:53:32.984Z,54.03
2018-07-12T08:56:03.741Z,54.88
2018-07-12T08:58:34.432Z,54.80
2018-07-12T09:01:05.208Z,54.99
2018-07-12T09:03:35.860Z,52.00
2018-07-12T09:06:06.663Z,53.03
2018-07-12T09:08:37.340Z,53.49
2018-07-12T09:11:08.419Z,55.57
2018-07-12T09:13:39.166Z,55.43
2018-07-12T09:16:09.917Z,55.40
2018-07-12T09:18:40.560Z,54.98
2018-07-12T09:21:11.370Z,54.67
2018-07-12T09:23:42.075Z,54.40
2018-07-12T09:26:12.914Z,53.62
2018-07-12T09:28:43.635Z,53.22
2018-07-12T09:31:14.413Z,53.10
2018-07-12T09:33:45.197Z,52.28
2018-07-12T09:36:16.003Z,50.92
2018-07-12T09:38:48.111Z,51.06
2018-07-12T09:41:19.420Z,50.22
2018-07-12T09:43:50.675Z,48.13
2018-07-12T09:46:21.740Z,47.91
2018-07-12T09:48:53.088Z,46.62
2018-07-12T09:51:23.800Z,45.06
2018-07-12T09:53:54.483Z,43.94
2018-07-12T09:56:40.935Z,46.85
2018-07-12T09:59:11.570Z,44.73
2018-07-12T10:01:47.509Z,44.32
2018-07-12T10:04:18.251Z,45.49
2018-07-12T10:06:55.979Z,44.26
2018-07-12T10:09:31.766Z,45.44
2018-07-12T10:12:07.647Z,45.08
2018-07-12T10:14:43.361Z,45.79
2018-07-12T10:17:49.143Z,45.75
2018-07-12T10:20:19.958Z,47.46
2018-07-12T10:22:50.803Z,47.57
2018-07-12T10:25:21.550Z,49.11
2018-07-12T10:27:52.286Z,48.12
2018-07-12T10:30:23.018Z,45.84
2018-07-12T10:32:53.680Z,45.58
2018-07-12T10:35:24.395Z,45.76
2018-07-12T10:37:55.093Z,44.61
2018-07-12T10:40:25.800Z,43.96
2018-07-12T10:42:56.474Z,42.16
2018-07-12T10:45:27.171Z,43.90
2018-07-12T10:47:57.878Z,43.88
2018-07-12T10:50:28.578Z,42.27
2018-07-12T10:52:59.291Z,40.70
2018-07-12T10:55:29.979Z,39.68
2018-07-12T10:58:00.996Z,38.85
2018-07-12T11:00:31.762Z,41.03
2018-07-12T11:03:02.452Z,39.15
2018-07-12T11:05:33.203Z,39.11
2018-07-12T11:08:04.030Z,40.26
2018-07-12T11:10:34.843Z,40.30
2018-07-12T11:13:14.660Z,40.18
2018-07-12T11:15:46.462Z,39.39
2018-07-12T11:18:17.090Z,39.90
2018-07-12T11:20:47.832Z,39.01
2018-07-12T11:23:18.504Z,39.03
2018-07-12T11:25:49.322Z,38.98
2018-07-12T11:28:20.032Z,39.43
2018-07-12T11:30:50.875Z,39.71
2018-07-12T11:33:45.355Z,41.00
2018-07-12T11:36:16.119Z,39.40
2018-07-12T11:38:47.235Z,37.07
2018-07-12T11:41:17.992Z,37.55
2018-07-12T11:43:48.731Z,35.76
2018-07-12T11:46:19.656Z,36.26
2018-07-12T11:48:50.321Z,33.98
2018-07-12T11:51:21.061Z,34.59
2018-07-12T11:53:51.742Z,35.83
2018-07-12T11:56:22.429Z,34.01
2018-07-12T11:58:53.280Z,33.26
2018-07-12T12:01:24.030Z,32.38
2018-07-12T12:03:54.750Z,32.42
2018-07-12T12:06:25.471Z,35.18
2018-07-12T12:08:56.195Z,33.80
2018-07-12T12:11:33.511Z,32.64
2018-07-12T12:14:04.180Z,31.15
2018-07-12T12:16:34.900Z,31.79
2018-07-12T12:19:05.705Z,31.96
2018-07-12T12:21:36.329Z,31.51
2018-07-12T12:24:07.049Z,31.05
2018-07-12T12:26:37.821Z,32.29
2018-07-12T12:29:08.527Z,32.71
2018-07-12T12:31:39.255Z,33.56
2018-07-12T12:34:10.012Z,33.42
2018-07-12T12:36:40.823Z,32.67
2018-07-12T12:39:11.555Z,31.90
2018-07-12T12:41:42.220Z,33.60
2018-07-12T12:44:13.011Z,32.19
2018-07-12T12:46:43.703Z,32.31
2018-07-12T12:49:14.445Z,33.02
2018-07-12T12:51:45.167Z,33.38
2018-07-12T12:54:15.857Z,33.19
2018-07-12T12:56:46.589Z,32.39
2018-07-12T12:59:17.373Z,31.40
2018-07-12T13:01:48.142Z,33.13
2018-07-12T13:04:18.816Z,31.86
2018-07-12T13:06:49.486Z,29.82
2018-07-12T13:09:20.325Z,30.39
2018-07-12T13:11:50.982Z,30.63
2018-07-12T13:14:21.778Z,30.21
2018-07-12T13:16:52.467Z,28.54
2018-07-12T13:19:23.173Z,29.37
2018-07-12T13:21:53.953Z,29.65
2018-07-12T13:24:24.644Z,30.43
2018-07-12T13:26:55.420Z,30.62
2018-07-12T13:29:26.222Z,28.46
2018-07-12T13:31:57.089Z,29.08
2018-07-12T13:34:27.929Z,27.63
2018-07-12T13:36:58.691Z,28.37
2018-07-12T13:39:29.462Z,28.75
2018-07-12T13:42:00.091Z,30.31
2018-07-12T13:44:30.759Z,31.20
2018-07-12T13:47:01.432Z,30.57
2018-07-12T13:49:32.121Z,28.54
2018-07-12T13:52:02.741Z,28.75
2018-07-12T13:54:33.475Z,29.37
2018-07-12T13:57:04.258Z,30.35
2018-07-12T13:59:34.975Z,29.36
2018-07-12T14:02:05.699Z,29.71
2018-07-12T14:04:36.408Z,28.82
2018-07-12T14:07:07.076Z,29.07
2018-07-12T14:09:37.851Z,29.17
2018-07-12T14:12:09.533Z,29.20
2018-07-12T14:14:40.281Z,29.22
2018-07-12T14:17:11.003Z,29.84
2018-07-12T14:19:42.027Z,30.95
2018-07-12T14:22:13.029Z,30.66
2018-07-12T14:24:44.255Z,31.02
2018-07-12T14:27:15.099Z,28.73
2018-07-12T14:29:45.656Z,28.44
2018-07-12T14:32:16.354Z,29.55
2018-07-12T14:34:47.065Z,29.11
2018-07-12T14:37:17.781Z,29.25
2018-07-12T14:39:48.483Z,31.22
2018-07-12T14:42:19.440Z,30.73
2018-07-12T14:44:50.128Z,30.86
2018-07-12T14:47:20.816Z,29.68
2018-07-12T14:49:51.479Z,28.95
2018-07-12T14:52:22.202Z,29.74
2018-07-12T14:54:52.947Z,28.51
2018-07-12T14:57:23.727Z,28.32
2018-07-12T14:59:54.414Z,27.78
2018-07-12T15:02:25.167Z,25.86
2018-07-12T15:04:55.837Z,25.42
2018-07-12T15:07:26.201Z,25.39
2018-07-12T15:09:56.725Z,26.72
2018-07-12T15:12:27.493Z,26.86
2018-07-12T15:14:58.176Z,26.79
2018-07-12T15:17:28.932Z,26.73
2018-07-12T15:19:59.667Z,27.69
2018-07-12T15:22:30.411Z,26.04
2018-07-12T15:25:01.093Z,26.08
2018-07-12T15:27:31.773Z,26.84
2018-07-12T15:30:02.506Z,28.19
2018-07-12T15:32:33.181Z,27.65
2018-07-12T15:35:03.877Z,27.03
2018-07-12T15:37:34.606Z,28.38
2018-07-12T15:40:05.465Z,27.32
2018-07-12T15:42:36.411Z,27.35
2018-07-12T15:45:07.141Z,26.53
2018-07-12T15:47:37.880Z,26.96
2018-07-12T15:50:08.583Z,27.09
2018-07-12T15:52:39.300Z,27.09
2018-07-12T15:55:09.983Z,27.69
2018-07-12T15:57:40.679Z,28.28
2018-07-12T16:00:11.348Z,28.71
2018-07-12T16:02:42.027Z,28.97
2018-07-12T16:05:12.748Z,29.05
2018-07-12T16:07:43.502Z,27.55
2018-07-12T16:10:14.153Z,27.93
2018-07-12T16:12:44.886Z,28.69
2018-07-12T16:15:15.553Z,28.98
2018-07-12T16:17:46.220Z,28.78
2018-07-12T16:20:16.921Z,28.68
2018-07-12T16:22:47.612Z,28.84
2018-07-12T16:25:18.306Z,29.59
2018-07-12T16:27:49.116Z,29.94
2018-07-12T16:30:19.864Z,31.26
2018-07-12T16:32:50.517Z,31.40
2018-07-12T16:35:21.226Z,31.50
2018-07-12T16:37:51.946Z,32.22
2018-07-12T16:40:22.616Z,32.75
2018-07-12T16:42:53.332Z,33.52
2018-07-12T16:45:24.264Z,33.53
2018-07-12T16:47:54.914Z,34.00
2018-07-12T16:50:25.580Z,33.92
2018-07-12T16:52:56.233Z,34.47
2018-07-12T16:55:26.914Z,35.46
2018-07-12T16:57:57.599Z,36.21
2018-07-12T17:00:28.319Z,36.81
2018-07-12T17:02:59.029Z,37.03
2018-07-12T17:05:29.698Z,36.45
2018-07-12T17:08:00.360Z,36.94
2018-07-12T17:10:31.151Z,37.32
2018-07-12T17:13:01.827Z,37.07
2018-07-12T17:15:32.535Z,37.16
2018-07-12T17:18:03.209Z,37.19
2018-07-12T17:20:33.952Z,37.87
2018-07-12T17:23:04.684Z,38.09
2018-07-12T17:25:35.371Z,38.67
2018-07-12T17:28:06.107Z,38.46
2018-07-12T17:30:36.904Z,38.72
2018-07-12T17:33:07.695Z,38.40
2018-07-12T17:35:38.311Z,38.60
2018-07-12T17:38:09.011Z,38.86
2018-07-12T17:40:39.639Z,39.62
2018-07-12T17:43:10.342Z,39.47
2018-07-12T17:45:41.029Z,39.60
2018-07-12T17:48:11.773Z,40.03
2018-07-12T17:50:42.455Z,40.70
2018-07-12T17:53:43.723Z,40.42
2018-07-12T17:56:14.409Z,40.75
2018-07-12T17:58:45.098Z,40.80
2018-07-12T18:01:15.827Z,40.43
2018-07-12T18:03:46.525Z,40.88
2018-07-12T18:06:17.204Z,40.90
2018-07-12T18:08:47.899Z,41.27
2018-07-12T18:11:18.599Z,41.42
2018-07-12T18:13:49.504Z,41.56
2018-07-12T18:16:20.803Z,43.27
2018-07-12T18:18:51.421Z,44.20
2018-07-12T18:21:22.110Z,44.95
2018-07-12T18:23:52.866Z,45.28
2018-07-12T18:26:24.072Z,45.48
2018-07-12T18:28:54.756Z,45.90
2018-07-12T18:31:25.464Z,46.11
2018-07-12T18:33:56.131Z,47.32
2018-07-12T18:36:26.832Z,47.78
2018-07-12T18:38:57.473Z,48.29
2018-07-12T18:41:28.752Z,48.96
2018-07-12T18:43:59.448Z,49.73
2018-07-12T18:46:30.120Z,50.38
2018-07-12T18:49:00.784Z,50.57
2018-07-12T18:51:31.497Z,50.86
2018-07-12T18:54:02.203Z,51.61
2018-07-12T18:56:32.908Z,52.60
2018-07-12T18:59:03.553Z,52.76
2018-07-12T19:01:34.312Z,53.19
2018-07-12T19:04:04.958Z,53.76
2018-07-12T19:06:35.671Z,54.17
2018-07-12T19:09:09.034Z,54.38
2018-07-12T19:11:39.700Z,54.66
2018-07-12T19:14:10.411Z,54.91
2018-07-12T19:16:41.111Z,55.54
2018-07-12T19:19:11.808Z,55.59
2018-07-12T19:21:42.488Z,56.27
2018-07-12T19:24:13.244Z,56.39
2018-07-12T19:26:43.901Z,56.09
2018-07-12T19:29:14.672Z,56.70
2018-07-12T19:31:45.354Z,56.31
2018-07-12T19:34:16.106Z,56.57
2018-07-12T19:36:46.843Z,57.20
2018-07-12T19:39:17.533Z,57.48
2018-07-12T19:41:48.256Z,57.00
2018-07-12T19:44:19.009Z,57.45
2018-07-12T19:46:49.730Z,57.64
2018-07-12T19:49:20.426Z,57.41
2018-07-12T19:51:56.315Z,57.76
2018-07-12T19:54:28.310Z,57.42
2018-07-12T19:57:13.849Z,57.85
2018-07-12T19:59:44.527Z,57.41
2018-07-12T20:02:15.304Z,57.65
2018-07-12T20:04:46.108Z,57.67
2018-07-12T20:07:16.939Z,57.63
2018-07-12T20:09:48.430Z,57.50
2018-07-12T20:12:19.193Z,57.70
2018-07-12T20:14:50.528Z,57.79
2018-07-12T20:17:21.244Z,57.66
2018-07-12T20:19:51.942Z,58.03
2018-07-12T20:22:22.709Z,58.61
2018-07-12T20:24:53.424Z,58.60
2018-07-12T20:27:24.109Z,58.71
2018-07-12T20:29:54.813Z,59.09
2018-07-12T20:32:25.487Z,58.96
2018-07-12T20:34:56.855Z,59.12
2018-07-12T20:37:27.596Z,59.34
2018-07-12T20:39:58.317Z,59.30
2018-07-12T20:42:29.033Z,59.82
2018-07-12T20:44:59.793Z,60.20
2018-07-12T20:47:30.525Z,60.66
2018-07-12T20:50:01.447Z,60.93
2018-07-12T20:52:32.161Z,61.14
2018-07-12T20:55:02.887Z,61.12
2018-07-12T20:57:33.560Z,61.08
2018-07-12T21:00:04.402Z,61.60
2018-07-12T21:02:35.120Z,61.88
2018-07-12T21:05:05.871Z,61.69
2018-07-12T21:07:36.564Z,62.18
2018-07-12T21:10:08.254Z,62.66
2018-07-12T21:12:38.920Z,62.80
2018-07-12T21:15:10.185Z,63.11
2018-07-12T21:17:40.861Z,63.57
2018-07-12T21:20:11.517Z,63.37
2018-07-12T21:22:42.188Z,63.90
2018-07-12T21:25:12.966Z,63.86
2018-07-12T21:27:43.631Z,64.09
2018-07-12T21:30:14.336Z,63.87
2018-07-12T21:32:44.987Z,63.83
2018-07-12T21:35:46.171Z,63.67
2018-07-12T21:38:16.803Z,63.83
2018-07-12T21:40:47.530Z,64.05
2018-07-12T21:43:18.239Z,64.79
2018-07-12T21:45:48.926Z,65.00
2018-07-12T21:48:19.584Z,65.23
2018-07-12T21:50:50.265Z,65.17
2018-07-12T21:53:20.964Z,65.41
2018-07-12T21:55:51.295Z,65.86
2018-07-12T21:58:21.843Z,65.19
2018-07-12T22:00:52.600Z,65.69
2018-07-12T22:03:23.381Z,65.94
2018-07-12T22:05:54.126Z,66.08
2018-07-12T22:08:28.096Z,65.74
2018-07-12T22:11:00.028Z,65.54
2018-07-12T22:13:31.591Z,66.12
2018-07-12T22:16:02.428Z,65.49
2018-07-12T22:18:33.203Z,65.19
2018-07-12T22:21:03.955Z,65.18
2018-07-12T22:23:34.712Z,65.10
2018-07-12T22:26:05.429Z,65.50
2018-07-12T22:28:36.123Z,65.49
2018-07-12T22:31:06.874Z,65.44
2018-07-12T22:33:37.562Z,65.50
2018-07-12T22:36:08.252Z,65.60
2018-07-12T22:38:38.930Z,65.09
2018-07-12T22:41:09.626Z,65.31
2018-07-12T22:43:40.292Z,65.20
2018-07-12T22:46:10.963Z,65.19
2018-07-12T22:48:41.715Z,65.11
2018-07-12T22:51:12.527Z,65.21
2018-07-12T22:53:43.835Z,65.62
2018-07-12T22:56:14.520Z,65.26
2018-07-12T22:58:45.231Z,65.33
2018-07-12T23:01:15.922Z,65.52
2018-07-12T23:03:46.586Z,65.31
2018-07-12T23:06:17.261Z,64.93
2018-07-12T23:08:47.983Z,65.30
2018-07-12T23:11:18.655Z,65.12
2018-07-12T23:13:49.439Z,64.96
2018-07-12T23:16:20.165Z,65.13
2018-07-12T23:18:51.718Z,65.26
2018-07-12T23:21:22.358Z,64.98
2018-07-12T23:23:53.011Z,64.81
2018-07-12T23:26:23.723Z,65.11
2018-07-12T23:28:54.354Z,64.81
2018-07-12T23:31:25.040Z,65.43
2018-07-12T23:33:55.750Z,65.42
2018-07-12T23:36:26.449Z,65.30
2018-07-12T23:38:57.078Z,65.28
2018-07-12T23:41:27.768Z,65.60
2018-07-12T23:43:58.456Z,65.36
2018-07-12T23:46:29.156Z,65.75
2018-07-12T23:48:59.844Z,65.62
2018-07-12T23:51:30.553Z,65.37
2018-07-12T23:54:01.231Z,65.82
2018-07-12T23:56:32.036Z,65.33
2018-07-12T23:59:02.689Z,65.28
